Aeroporto :
LOGIN :

Iscrizione | Disclaimer

   EN    FR    IT 

 










Sommario :    VFR   VFR Marginale   IFR   IFR Intensivo   IFR Molto Intensivo
Visibilità : 
Base nubi : 
>= 8 km
>= 3000ft
5 / 8 km
1000 / 3000 ft
1500m / 5 km
500 / 1000 ft
800 / 1500m
200 / 500 ft
< 800m
< 200 ft
Simboli :   Temporali  Nebbia  Neve Forte  Precipitazioni Forti  Vento > 20 kt
SIGMETs :   Varie  Temporali  Ghiacco  Turbolenza  Onda orograficha  Ceneri Vulcaniche






- Altitudine del aeroporto : 436 ft
- Codice IATA : BTS


LZIB - Bratislava

ULTIMO METAR :
  • 231900Z 12012KT 9999 FEW018 10/07 Q1000 NOSIG

METARs OBSOLETI :
  • 231830Z 12006KT 9999 FEW015 09/07 Q1000 NOSIG
  • 231800Z 08005KT 9999 FEW015 09/07 Q1000 NOSIG
  • 231730Z 04007KT 9999 FEW015 09/07 Q1001 NOSIG
  • 231700Z 08006KT 9999 FEW015 SCT048 09/07 Q1001 NOSIG
  • 231630Z 08007KT 9999 FEW015 09/07 Q1001 NOSIG
  • 231600Z 09008KT 9999 FEW012 SCT046 09/07 Q1001 NOSIG
  • 231530Z 11009KT 9999 FEW012 SCT036 BKN048 09/08 Q1001 NOSIG
  • 231500Z 12009KT 9999 FEW012 SCT036 BKN048 09/07 Q1001 NOSIG
  • 231430Z 10008KT 9999 -RA FEW012 SCT031 BKN042 09/08 Q1001 NOSIG

TAF TAF LZIB
Valido dal 23 a 18 ore il 24 a 18 ore UTC


231715Z 2318/2418 25007KT 9999 -RA FEW013 BKN030
TEMPO 2318/2402 15015G25KT BKN007 OVC018
BECMG 2402/2404 9999 FEW016 SCT040
BECMG 2413/2415 08004KT FEW035



MetMap, La meteo Aeronautica in un colpo d'occhio ! - Copyright ORBIFLY Dicembre 2007 - Disclaimer

ORBIFLY MET'MAP TEAM :

Programmazione e sviluppo : Alexandra Zaïnal
Concezione : Baudouin d'Aumeries
Supporto tecnico e logistico : Manuel Goepfert
Aiuto : Marc-Olivier Méhu
Aiuto per la traduzione : Arnaldo La Scala




FONTI E CREDITI :

   NOAA